Glen Daniel, WV (25844)

8:55 PM EDT on April 23, 2017 (GMT -0400)
Fairdale | | Change Station

Elev 1938 ft 37.74 °N, 81.35 °W | Updated 3 seconds ago

Rain
Rain
48.7 °F
Feels Like 49 °F
N
0.0
Wind Variable Wind from East
Gusts 0.0 mph

Today
High -- | Low -- °F
--% Chance of Precip.
Yesterday
High -- | Low -- °F
Precip. -- in
Pressure 30.00 in
Visibility 10.0 miles
Clouds Few 1200 ft
Mostly Cloudy 6500 ft
Overcast 7500 ft
Windchill 49 °F
Dew Point 45 °F
Humidity 86%
Rainfall 0.21 in
Snow Depth Not available.
6:39 AM 8:08 PM
Waning Crescent, 8% visible
METAR KBKW 240051Z AUTO 13011G17KT 10SM -RA FEW012 BKN065 OVC075 08/06 A2999 RMK AO2 RAB2356 SLP157 P0001 T00830061 TSNO $
Pressure 30.00 in
Visibility 10.0 miles
Clouds Few 1200 ft
Mostly Cloudy 6500 ft
Overcast 7500 ft
Windchill 49 °F
Dew Point 45 °F
Humidity 86%
Rainfall 0.21 in
Snow Depth Not available.
6:39 AM 8:08 PM
Waning Crescent, 8% visible
METAR KBKW 240051Z AUTO 13011G17KT 10SM -RA FEW012 BKN065 OVC075 08/06 A2999 RMK AO2 RAB2356 SLP157 P0001 T00830061 TSNO $

Get Severe Weather Alerts

Thanks for signing up!

Be on the lookout for a verification email in your inbox.

You'll start receiving the daily forecast at 8 AM.

×

10-Day Weather Forecast

Almanac

Astronomy

Apr. 23, 2017 Rise Set
Actual Time
Civil Twilight
Nautical Twilight
Astronomical Twilight
Moon
Length of Visible Light
Length of Day
Tomorrow will be .
, % of the Moon is Illuminated

Today's Extremes

State Highs State Lows

Community

WunderPhotos

WunderBlog® & News

Nearby

Air Quality

  Air Quality AQ Index Pollutant
Not available.

Snow Depth

Station Depth Elevation

Earthquake Activity

City Distance Mag. Time & Date
Minimum magnitude displayed is 2.5.

Coastal Water Temperatures

Place Temperature

Stations

Nearby Weather Stations

Station Location Temp. Windchill Dew Point Humidity Wind Precip. Elev Updated Type
                   

Watches & Warnings

There are currently no watches in effect.